Time;durP1;ratioP1;P1;durP2;ratioP2;P2;SDS_P1;SDS_P2;PMS_P1;PMS_P2;Temp;Humidity;BMP_temperature;BMP_pressure;BME280_temperature;BME280_humidity;BME280_pressure;Samples;Min_cycle;Max_cycle;Signal;HPM_P1;HPM_P2
2021/11/18 02:47:54;;;;;;;6.78;5.18;;;;;;;8.75;72.83;101068.41;1082753;54;20423;-78
2021/11/18 02:48:56;;;;;;;8.98;5.95;;;;;;;8.60;73.55;101077.50;1083221;39;20479;-77
2021/11/18 02:50:10;;;;;;;8.65;5.15;;;;;;;8.51;74.03;101078.97;1083177;54;20067;-78
2021/11/18 02:51:15;;;;;;;8.52;5.50;;;;;;;8.41;73.96;101074.25;1082033;54;20045;-77
2021/11/18 02:52:25;;;;;;;8.52;5.35;;;;;;;8.32;74.21;101074.00;1082119;54;20108;-77
2021/11/18 02:53:27;;;;;;;7.25;5.05;;;;;;;8.30;74.24;101076.78;1082899;54;20069;-79
2021/11/18 02:54:31;;;;;;;7.90;5.35;;;;;;;8.24;74.42;101072.72;1083490;46;20034;-78
2021/11/18 02:55:36;;;;;;;8.65;5.47;;;;;;;8.23;74.60;101072.84;1083276;54;20073;-78
2021/11/18 02:56:40;;;;;;;8.10;5.03;;;;;;;8.22;74.66;101069.31;1083173;54;20034;-78
2021/11/18 02:57:42;;;;;;;6.93;4.60;;;;;;;8.20;74.52;101075.72;1083240;54;20035;-79
2021/11/18 02:58:46;;;;;;;8.52;5.07;;;;;;;8.20;74.58;101079.25;1083376;39;20519;-78
2021/11/18 02:59:48;;;;;;;8.63;5.18;;;;;;;8.21;74.75;101077.41;1084087;31;20634;-78
2021/11/18 03:00:57;;;;;;;8.80;5.60;;;;;;;8.18;74.64;101078.50;1083431;54;20038;-78
2021/11/18 03:01:59;;;;;;;8.93;5.82;;;;;;;8.17;74.59;101076.78;1083110;54;20078;-78
2021/11/18 03:03:05;;;;;;;8.30;4.82;;;;;;;8.14;74.75;101076.97;1082838;54;20046;-78
2021/11/18 03:04:07;;;;;;;9.50;5.35;;;;;;;8.08;74.81;101072.06;1083425;54;20068;-79
2021/11/18 03:05:13;;;;;;;9.73;5.85;;;;;;;8.04;75.10;101073.22;1083460;54;20653;-78
2021/11/18 03:06:15;;;;;;;8.85;5.90;;;;;;;8.05;75.34;101065.16;1083035;54;20073;-78
2021/11/18 03:07:20;;;;;;;8.27;5.13;;;;;;;8.06;75.14;101069.53;1083496;54;20038;-78
2021/11/18 03:08:22;;;;;;;8.60;5.43;;;;;;;8.03;75.29;101059.06;1084913;31;20544;-78
2021/11/18 03:09:26;;;;;;;9.55;5.15;;;;;;;8.02;75.15;101070.69;1083077;54;20073;-78
2021/11/18 03:10:29;;;;;;;9.68;5.97;;;;;;;8.00;75.47;101069.06;1083163;39;20410;-78
2021/11/18 03:11:34;;;;;;;8.57;5.82;;;;;;;7.96;75.52;101063.09;1083227;54;20057;-78
2021/11/18 03:12:37;;;;;;;9.77;6.00;;;;;;;7.96;75.42;101069.28;1083445;54;20550;-79
2021/11/18 03:13:41;;;;;;;9.55;5.63;;;;;;;7.99;75.75;101062.88;1083327;54;20038;-78
2021/11/18 03:14:42;;;;;;;8.20;5.35;;;;;;;7.99;75.64;101078.03;1083400;54;20548;-79
2021/11/18 03:15:47;;;;;;;9.48;5.70;;;;;;;7.97;75.67;101075.47;1083487;54;20358;-78
2021/11/18 03:16:49;;;;;;;9.38;5.50;;;;;;;7.97;75.61;101078.97;1085005;31;20521;-78
2021/11/18 03:17:53;;;;;;;8.40;5.70;;;;;;;8.02;75.69;101078.66;1083492;54;20576;-78
2021/11/18 03:19:00;;;;;;;7.68;5.30;;;;;;;7.97;75.69;101078.97;1083576;31;20539;-78
2021/11/18 03:20:02;;;;;;;10.18;6.40;;;;;;;7.87;76.25;101079.69;1083335;54;20054;-77
2021/11/18 03:21:10;;;;;;;11.00;6.63;;;;;;;7.81;76.62;101078.28;1082294;54;20034;-77
2021/11/18 03:22:11;;;;;;;11.18;7.50;;;;;;;7.65;76.89;101081.94;1082554;54;20046;-78
2021/11/18 03:23:16;;;;;;;11.15;7.07;;;;;;;7.56;77.42;101079.88;1082708;54;20058;-77
2021/11/18 03:24:17;;;;;;;11.82;7.82;;;;;;;7.50;77.71;101077.63;1082527;54;20069;-77
2021/11/18 03:25:24;;;;;;;12.88;9.00;;;;;;;7.36;78.68;101085.66;1082728;54;20039;-78
2021/11/18 03:26:29;;;;;;;13.48;7.97;;;;;;;7.38;78.60;101073.97;1082764;54;20084;-77
2021/11/18 03:27:34;;;;;;;11.23;7.95;;;;;;;7.35;78.71;101084.78;1082400;54;20743;-78
2021/11/18 03:28:40;;;;;;;13.07;7.65;;;;;;;7.26;79.35;101091.56;1082571;54;20074;-77
2021/11/18 03:29:45;;;;;;;14.30;9.07;;;;;;;7.22;79.13;101087.41;1082593;54;20085;-77
2021/11/18 03:30:47;;;;;;;12.10;8.02;;;;;;;7.28;79.14;101100.28;1082757;54;20038;-77
2021/11/18 03:31:52;;;;;;;12.75;8.10;;;;;;;7.33;79.02;101100.88;1082535;54;20093;-77
2021/11/18 03:32:57;;;;;;;14.32;9.27;;;;;;;7.25;79.44;101099.63;1083078;39;20677;-77
2021/11/18 03:34:09;;;;;;;12.98;8.90;;;;;;;7.28;79.59;101097.63;1082548;54;20062;-77
2021/11/18 03:35:11;;;;;;;12.55;8.32;;;;;;;7.30;79.05;101100.22;1082405;54;20090;-77
2021/11/18 03:36:16;;;;;;;13.25;7.40;;;;;;;7.40;78.83;101101.34;1082696;39;20456;-77
2021/11/18 03:37:20;;;;;;;12.27;7.97;;;;;;;7.37;78.93;101098.03;1082095;54;20050;-77
2021/11/18 03:38:24;;;;;;;14.43;8.15;;;;;;;7.34;78.98;101102.56;1082133;54;20081;-77
2021/11/18 03:39:29;;;;;;;12.30;7.93;;;;;;;7.36;78.91;101098.97;1082987;39;20806;-78
2021/11/18 03:40:31;;;;;;;13.07;8.80;;;;;;;7.26;79.26;101107.53;1082500;54;20050;-77
2021/11/18 03:41:39;;;;;;;13.77;8.45;;;;;;;7.27;79.38;101106.59;1082343;54;20038;-78
2021/11/18 03:42:42;;;;;;;14.15;8.25;;;;;;;7.36;79.08;101112.28;1082172;54;20042;-77
2021/11/18 03:43:49;;;;;;;11.95;7.90;;;;;;;7.41;79.16;101110.16;1082071;54;20061;-77
2021/11/18 03:44:50;;;;;;;12.07;7.93;;;;;;;7.40;78.65;101113.75;1082566;47;20045;-77
2021/11/18 03:45:54;;;;;;;13.20;8.02;;;;;;;7.45;78.86;101117.00;1082205;54;20041;-78
2021/11/18 03:47:01;;;;;;;14.60;8.30;;;;;;;7.34;79.09;101117.66;1082331;39;22092;-78
2021/11/18 03:48:04;;;;;;;13.50;9.10;;;;;;;7.33;79.44;101113.28;1083285;39;20818;-77
2021/11/18 03:49:13;;;;;;;13.13;8.00;;;;;;;7.39;79.17;101128.00;1081905;54;20050;-77
2021/11/18 03:50:15;;;;;;;12.88;7.70;;;;;;;7.39;78.97;101122.69;1082057;54;20065;-77
2021/11/18 03:51:20;;;;;;;12.30;8.05;;;;;;;7.44;78.83;101131.25;1082323;54;20133;-77
2021/11/18 03:52:21;;;;;;;10.77;7.25;;;;;;;7.53;78.72;101124.47;1082228;47;20034;-78
2021/11/18 03:53:27;;;;;;;13.82;8.35;;;;;;;7.46;78.74;101124.88;1082468;54;20042;-77
2021/11/18 03:54:31;;;;;;;13.32;8.52;;;;;;;7.41;79.06;101131.44;1082170;54;20074;-77
2021/11/18 03:55:36;;;;;;;13.50;8.48;;;;;;;7.37;78.92;101120.16;1082084;54;20054;-77
2021/11/18 03:56:41;;;;;;;14.25;8.75;;;;;;;7.33;79.33;101111.50;1082024;54;20059;-77
2021/11/18 03:57:45;;;;;;;12.10;8.20;;;;;;;7.38;79.15;101120.97;1081875;54;20038;-77
2021/11/18 03:58:47;;;;;;;14.00;8.50;;;;;;;7.37;79.39;101124.63;1082116;54;20920;-78
2021/11/18 03:59:51;;;;;;;11.60;8.02;;;;;;;7.33;79.51;101116.81;1082299;54;20061;-77
2021/11/18 04:00:53;;;;;;;14.70;8.40;;;;;;;7.36;79.30;101122.91;1082012;54;20069;-78
2021/11/18 04:01:58;;;;;;;13.27;8.20;;;;;;;7.41;79.41;101128.78;1082227;54;20157;-77
2021/11/18 04:03:01;;;;;;;13.25;8.70;;;;;;;7.45;79.12;101130.31;1082260;31;20541;-77
2021/11/18 04:04:06;;;;;;;13.38;8.30;;;;;;;7.44;79.25;101126.78;1082196;54;20061;-77
2021/11/18 04:05:11;;;;;;;13.10;8.70;;;;;;;7.42;79.42;101117.19;1082123;54;20046;-77
2021/11/18 04:06:15;;;;;;;13.30;7.80;;;;;;;7.37;79.60;101121.97;1082514;54;20092;-77
2021/11/18 04:07:17;;;;;;;11.45;8.05;;;;;;;7.42;79.45;101117.19;1082320;54;20154;-77
2021/11/18 04:08:21;;;;;;;14.18;9.80;;;;;;;7.32;79.66;101117.78;1082670;54;20038;-77
2021/11/18 04:09:23;;;;;;;13.40;9.27;;;;;;;7.39;79.59;101112.06;1085914;54;20061;-78
2021/11/18 04:10:32;;;;;;;14.50;9.35;;;;;;;7.37;79.69;101117.47;1085695;54;20037;-78
2021/11/18 04:11:34;;;;;;;15.18;9.48;;;;;;;7.49;79.22;101113.19;1085452;54;20061;-77
2021/11/18 04:12:39;;;;;;;13.27;8.35;;;;;;;7.56;78.97;101109.16;1083706;54;20061;-77
2021/11/18 04:13:41;;;;;;;12.45;8.88;;;;;;;7.45;79.40;101123.16;1084897;54;20062;-77
2021/11/18 04:14:46;;;;;;;16.13;9.98;;;;;;;7.42;79.58;101122.50;1084973;54;20063;-78
2021/11/18 04:15:49;;;;;;;15.10;9.48;;;;;;;7.41;79.46;101126.13;1082906;54;20046;-77
2021/11/18 04:16:53;;;;;;;16.00;9.63;;;;;;;7.36;79.59;101128.22;1083096;39;20476;-77
2021/11/18 04:17:56;;;;;;;12.70;9.27;;;;;;;7.40;79.52;101119.97;1082626;54;20046;-78
2021/11/18 04:19:01;;;;;;;14.10;9.65;;;;;;;7.39;79.73;101128.88;1082288;54;20054;-77
2021/11/18 04:20:05;;;;;;;13.63;9.20;;;;;;;7.42;79.47;101127.84;1083369;31;20545;-79
2021/11/18 04:21:12;;;;;;;13.45;9.20;;;;;;;7.46;79.62;101132.03;1082794;54;20130;-77
2021/11/18 04:22:14;;;;;;;13.55;8.25;;;;;;;7.51;79.40;101131.72;1082561;54;20050;-78
2021/11/18 04:23:19;;;;;;;12.13;8.63;;;;;;;7.48;79.44;101138.06;1082648;47;20125;-78
2021/11/18 04:24:26;;;;;;;12.35;8.60;;;;;;;7.50;79.09;101130.84;1082791;39;20591;-78
2021/11/18 04:25:30;;;;;;;13.32;9.10;;;;;;;7.52;79.23;101131.63;1083014;54;20078;-77
2021/11/18 04:26:34;;;;;;;13.25;8.80;;;;;;;7.42;79.29;101134.00;1082675;54;20050;-78
2021/11/18 04:27:36;;;;;;;14.85;9.48;;;;;;;7.41;79.66;101142.09;1082897;54;20050;-78
2021/11/18 04:28:41;;;;;;;14.77;9.68;;;;;;;7.36;79.84;101138.88;1083453;54;20058;-78
2021/11/18 04:29:43;;;;;;;12.93;8.85;;;;;;;7.40;79.44;101137.72;1083539;39;20347;-78
2021/11/18 04:30:50;;;;;;;12.68;8.43;;;;;;;7.52;79.41;101141.38;1083362;54;20588;-78
2021/11/18 04:31:52;;;;;;;13.80;9.45;;;;;;;7.43;79.35;101140.19;1083517;54;20068;-78
2021/11/18 04:32:56;;;;;;;14.30;9.85;;;;;;;7.38;79.49;101134.28;1082328;46;20042;-77
2021/11/18 04:33:59;;;;;;;14.70;10.25;;;;;;;7.28;79.77;101131.38;1082200;54;20038;-77
2021/11/18 04:35:03;;;;;;;16.00;10.90;;;;;;;7.27;79.97;101135.84;1082263;39;20430;-77
2021/11/18 04:36:09;;;;;;;14.20;9.85;;;;;;;7.32;80.08;101143.53;1081631;54;20087;-76
2021/11/18 04:37:13;;;;;;;13.25;9.50;;;;;;;7.34;79.91;101139.81;1081912;54;20050;-77
2021/11/18 04:38:18;;;;;;;13.20;9.07;;;;;;;7.35;79.82;101135.34;1083141;39;20445;-77
2021/11/18 04:39:20;;;;;;;16.00;10.43;;;;;;;7.26;80.38;101139.47;1081732;54;20041;-77
2021/11/18 04:40:24;;;;;;;14.48;9.90;;;;;;;7.29;80.08;101133.09;1083848;54;20062;-78
2021/11/18 04:41:28;;;;;;;14.32;8.75;;;;;;;7.30;79.95;101134.78;1085701;54;20085;-78
2021/11/18 04:42:32;;;;;;;15.15;9.88;;;;;;;7.29;80.01;101138.41;1085288;54;20042;-77
2021/11/18 04:43:34;;;;;;;13.30;9.95;;;;;;;7.34;79.77;101141.59;1084761;54;20035;-77
2021/11/18 04:44:38;;;;;;;13.45;9.48;;;;;;;7.40;79.62;101140.38;1081721;54;20563;-77
2021/11/18 04:45:40;;;;;;;13.73;9.30;;;;;;;7.45;79.66;101139.13;1082261;54;20065;-77
2021/11/18 04:46:44;;;;;;;13.80;9.63;;;;;;;7.40;79.60;101143.91;1081928;54;20643;-77
2021/11/18 04:47:46;;;;;;;16.63;10.15;;;;;;;7.30;79.86;101146.28;1081258;54;20042;-77
2021/11/18 04:48:51;;;;;;;16.85;10.90;;;;;;;7.26;80.17;101143.91;1081455;54;20057;-77
2021/11/18 04:49:53;;;;;;;13.70;9.73;;;;;;;7.29;80.19;101144.56;1081222;54;20038;-76
2021/11/18 04:50:58;;;;;;;15.40;9.95;;;;;;;7.28;79.98;101148.16;1081327;39;20637;-78
2021/11/18 04:52:00;;;;;;;14.40;10.15;;;;;;;7.31;79.97;101147.16;1080441;54;20054;-76
2021/11/18 04:53:07;;;;;;;14.85;10.10;;;;;;;7.28;80.17;101156.16;1080544;54;20061;-76
2021/11/18 04:54:09;;;;;;;13.55;9.32;;;;;;;7.33;80.04;101150.53;1081871;31;20511;-76
2021/11/18 04:55:15;;;;;;;12.55;9.40;;;;;;;7.37;79.86;101152.06;1081368;39;20555;-76
2021/11/18 04:56:17;;;;;;;13.25;9.52;;;;;;;7.29;79.80;101149.88;1080667;54;20044;-77
2021/11/18 04:57:28;;;;;;;14.13;9.52;;;;;;;7.28;80.03;101158.81;1080759;54;20521;-76
2021/11/18 04:58:30;;;;;;;14.77;10.32;;;;;;;7.26;80.30;101149.22;1081580;46;20149;-77
2021/11/18 04:59:35;;;;;;;13.88;9.75;;;;;;;7.37;79.91;101154.72;1081384;54;20870;-77
2021/11/18 05:00:41;;;;;;;12.80;8.70;;;;;;;7.48;79.37;101159.34;1081223;54;20046;-76
2021/11/18 05:01:45;;;;;;;13.52;9.02;;;;;;;7.57;79.40;101156.09;1081157;54;20046;-77
2021/11/18 05:02:47;;;;;;;13.18;9.65;;;;;;;7.46;79.41;101159.47;1080798;54;20077;-76
2021/11/18 05:03:51;;;;;;;15.90;10.63;;;;;;;7.38;79.90;101155.56;1081105;54;20054;-77
2021/11/18 05:04:53;;;;;;;14.45;10.02;;;;;;;7.37;79.87;101156.56;1081197;54;20065;-76
2021/11/18 05:05:58;;;;;;;17.35;10.70;;;;;;;7.33;80.05;101161.19;1081137;54;20138;-76
2021/11/18 05:07:00;;;;;;;15.65;9.82;;;;;;;7.37;80.16;101156.56;1081073;54;20089;-76
2021/11/18 05:08:07;;;;;;;16.63;10.50;;;;;;;7.28;80.33;101156.16;1081020;54;20757;-76
2021/11/18 05:09:10;;;;;;;14.15;10.13;;;;;;;7.33;80.36;101155.84;1081198;54;20038;-76
2021/11/18 05:10:15;;;;;;;14.70;9.55;;;;;;;7.40;79.89;101153.66;1081575;47;20050;-77
2021/11/18 05:11:17;;;;;;;14.45;9.82;;;;;;;7.43;79.67;101150.81;1080991;54;20042;-76
2021/11/18 05:12:21;;;;;;;14.00;10.00;;;;;;;7.34;80.03;101155.78;1081235;54;20141;-77
2021/11/18 05:13:25;;;;;;;15.70;10.30;;;;;;;7.45;79.68;101164.91;1081315;54;20069;-77
2021/11/18 05:14:29;;;;;;;15.13;10.30;;;;;;;7.42;79.62;101168.56;1081360;54;20042;-77
2021/11/18 05:15:34;;;;;;;15.20;9.85;;;;;;;7.51;79.35;101161.00;1081273;54;20197;-77
2021/11/18 05:16:38;;;;;;;14.70;9.20;;;;;;;7.53;79.42;101161.72;1081133;54;20042;-76
2021/11/18 05:17:40;;;;;;;13.60;9.18;;;;;;;7.58;79.13;101165.81;1081225;54;20054;-76
2021/11/18 05:18:45;;;;;;;13.68;8.50;;;;;;;7.67;79.01;101167.03;1081923;39;20717;-77
2021/11/18 05:19:46;;;;;;;12.73;8.85;;;;;;;7.74;78.75;101164.84;1080844;54;20038;-76
2021/11/18 05:20:50;;;;;;;11.52;7.50;;;;;;;7.79;78.54;101168.03;1081641;39;20658;-76
2021/11/18 05:21:52;;;;;;;12.27;8.98;;;;;;;7.73;78.48;101157.81;1081109;54;20038;-77
2021/11/18 05:22:57;;;;;;;11.73;7.95;;;;;;;7.76;78.69;101162.91;1081408;54;20050;-76
2021/11/18 05:24:05;;;;;;;12.57;9.05;;;;;;;7.81;78.53;101155.50;1080851;54;20038;-76
2021/11/18 05:25:10;;;;;;;12.27;8.13;;;;;;;7.85;78.25;101162.31;1081767;54;20038;-76
2021/11/18 05:26:14;;;;;;;11.15;8.13;;;;;;;7.73;78.30;101163.97;1081987;54;20038;-76
2021/11/18 05:27:20;;;;;;;13.90;9.32;;;;;;;7.61;78.74;101165.63;1081593;54;20042;-77
2021/11/18 05:28:21;;;;;;;13.68;9.50;;;;;;;7.58;78.65;101163.16;1081374;39;20136;-77
2021/11/18 05:29:25;;;;;;;14.73;9.82;;;;;;;7.56;78.73;101166.88;1081457;54;20061;-77
2021/11/18 05:30:28;;;;;;;15.88;10.35;;;;;;;7.54;78.54;101164.31;1081217;54;20050;-76
2021/11/18 05:31:33;;;;;;;14.30;9.25;;;;;;;7.57;78.77;101160.59;1081274;54;21036;-76
2021/11/18 05:32:35;;;;;;;13.10;8.43;;;;;;;7.70;78.38;101163.31;1081329;54;20045;-77
2021/11/18 05:33:39;;;;;;;12.95;8.55;;;;;;;7.78;78.25;101155.69;1080882;54;20038;-76
2021/11/18 05:34:41;;;;;;;12.45;8.30;;;;;;;7.77;78.14;101161.97;1080639;54;20086;-77
2021/11/18 05:35:46;;;;;;;12.52;8.65;;;;;;;7.76;78.03;101170.91;1080824;54;20046;-77
2021/11/18 05:36:48;;;;;;;12.02;8.10;;;;;;;7.83;77.78;101168.69;1080701;54;20071;-76
2021/11/18 05:37:52;;;;;;;12.70;8.48;;;;;;;7.84;77.79;101157.94;1081405;54;20042;-77
2021/11/18 05:38:54;;;;;;;13.05;8.43;;;;;;;7.81;77.85;101166.16;1081148;54;20054;-77
2021/11/18 05:40:01;;;;;;;15.30;9.30;;;;;;;7.67;78.29;101166.16;1081406;54;20038;-76
2021/11/18 05:41:02;;;;;;;13.07;8.77;;;;;;;7.64;78.50;101167.22;1081345;54;20035;-78
2021/11/18 05:42:07;;;;;;;12.48;8.93;;;;;;;7.71;78.21;101163.22;1081330;54;20046;-77
2021/11/18 05:43:11;;;;;;;12.05;8.02;;;;;;;7.83;77.86;101164.25;1081596;54;20463;-76
2021/11/18 05:44:13;;;;;;;12.48;8.55;;;;;;;7.85;77.58;101159.66;1081333;54;20050;-76
2021/11/18 05:45:20;;;;;;;12.35;8.40;;;;;;;7.83;77.82;101164.25;1081324;54;20066;-77
2021/11/18 05:46:21;;;;;;;12.82;8.95;;;;;;;7.74;78.24;101162.19;1081170;54;20088;-77
2021/11/18 05:47:26;;;;;;;12.75;8.40;;;;;;;7.75;77.95;101166.53;1081261;54;20038;-77
2021/11/18 05:48:31;;;;;;;13.02;9.32;;;;;;;7.83;77.78;101163.38;1081609;54;20042;-76
2021/11/18 05:49:36;;;;;;;11.82;8.02;;;;;;;7.88;77.71;101156.78;1081258;54;20038;-77
2021/11/18 05:50:40;;;;;;;11.85;8.40;;;;;;;7.85;77.59;101166.78;1081380;54;20077;-76
2021/11/18 05:51:44;;;;;;;12.82;9.30;;;;;;;7.75;77.74;101161.19;1081419;39;20494;-77
2021/11/18 05:52:46;;;;;;;13.45;9.05;;;;;;;7.71;78.21;101165.03;1080853;54;20074;-77
2021/11/18 05:53:51;;;;;;;12.32;9.10;;;;;;;7.69;78.13;101166.94;1081442;54;20954;-77
2021/11/18 05:54:52;;;;;;;12.60;9.35;;;;;;;7.68;78.17;101162.56;1081232;54;20065;-76
2021/11/18 05:56:01;;;;;;;12.45;8.82;;;;;;;7.78;77.70;101171.66;1081284;54;20034;-78
2021/11/18 05:57:03;;;;;;;13.20;8.90;;;;;;;7.86;77.38;101158.69;1081016;54;20068;-76
2021/11/18 05:58:07;;;;;;;11.20;8.50;;;;;;;7.89;77.55;101157.63;1081757;39;20444;-77
2021/11/18 05:59:10;;;;;;;11.07;7.95;;;;;;;7.91;77.36;101156.59;1081407;47;20603;-77
2021/11/18 06:00:17;;;;;;;11.80;8.10;;;;;;;7.91;77.13;101158.41;1081013;54;20038;-76
2021/11/18 06:01:25;;;;;;;13.23;9.10;;;;;;;7.79;77.55;101160.91;1081349;54;20573;-76
2021/11/18 06:02:30;;;;;;;12.98;9.35;;;;;;;7.80;77.52;101167.09;1081497;46;20046;-77
2021/11/18 06:03:31;;;;;;;11.85;8.35;;;;;;;7.86;77.66;101165.84;1080993;54;20050;-76
2021/11/18 06:04:35;;;;;;;10.50;7.75;;;;;;;7.91;77.42;101161.94;1081505;54;20038;-76
2021/11/18 06:05:37;;;;;;;11.25;7.63;;;;;;;7.95;77.24;101162.59;1081479;54;20073;-76
2021/11/18 06:06:43;;;;;;;12.80;8.23;;;;;;;7.93;77.15;101165.34;1081336;54;20034;-76
2021/11/18 06:07:44;;;;;;;15.70;11.05;;;;;;;7.87;77.56;101164.91;1081374;46;20675;-76
2021/11/18 06:08:48;;;;;;;15.13;11.07;;;;;;;7.69;77.91;101175.78;1081690;54;20042;-76
2021/11/18 06:09:50;;;;;;;16.98;11.23;;;;;;;7.71;77.92;101173.00;1081179;54;20038;-76
2021/11/18 06:10:54;;;;;;;14.43;10.38;;;;;;;7.68;77.99;101171.41;1081719;54;20038;-76
2021/11/18 06:11:58;;;;;;;15.35;11.63;;;;;;;7.65;78.04;101174.25;1081271;54;20039;-76
2021/11/18 06:13:03;;;;;;;15.48;10.60;;;;;;;7.64;78.12;101180.53;1081954;54;20042;-76
2021/11/18 06:14:05;;;;;;;17.95;11.90;;;;;;;7.59;78.35;101175.50;1081372;54;20042;-76
2021/11/18 06:15:11;;;;;;;17.13;11.73;;;;;;;7.64;78.50;101180.53;1082007;39;20456;-76
2021/11/18 06:16:12;;;;;;;14.23;10.52;;;;;;;7.76;77.91;101173.56;1081973;39;20433;-76
2021/11/18 06:17:16;;;;;;;14.93;10.05;;;;;;;7.83;77.71;101177.56;1081534;54;20042;-76
2021/11/18 06:18:18;;;;;;;12.88;9.07;;;;;;;7.87;77.34;101181.72;1081323;54;20038;-76
2021/11/18 06:19:22;;;;;;;13.25;9.07;;;;;;;7.89;77.48;101182.47;1081363;54;20145;-76
2021/11/18 06:20:24;;;;;;;13.65;9.43;;;;;;;7.82;77.67;101183.84;1081660;54;20042;-76
2021/11/18 06:21:29;;;;;;;12.32;8.88;;;;;;;7.88;77.45;101177.25;1081366;54;20041;-77
2021/11/18 06:22:30;;;;;;;12.07;8.23;;;;;;;7.88;77.54;101183.44;1082064;39;20195;-76
2021/11/18 06:23:35;;;;;;;13.05;8.15;;;;;;;7.94;77.08;101187.50;1081687;46;20046;-76
2021/11/18 06:24:36;;;;;;;10.95;8.32;;;;;;;7.93;77.15;101186.66;1081694;54;20073;-76
2021/11/18 06:25:41;;;;;;;13.10;8.70;;;;;;;7.86;77.49;101189.81;1081707;54;20038;-77
2021/11/18 06:26:43;;;;;;;16.20;10.75;;;;;;;7.75;77.71;101193.13;1081365;39;20502;-77
2021/11/18 06:27:50;;;;;;;13.13;9.57;;;;;;;7.82;77.60;101194.47;1081439;54;20066;-76
2021/11/18 06:28:54;;;;;;;15.80;11.18;;;;;;;7.64;78.03;101197.38;1081372;54;20049;-75
2021/11/18 06:29:56;;;;;;;15.32;10.95;;;;;;;7.61;78.24;101199.34;1081585;54;20073;-77
2021/11/18 06:31:05;;;;;;;16.15;11.18;;;;;;;7.59;78.71;101198.63;1082024;54;20046;-77
2021/11/18 06:32:07;;;;;;;15.02;10.98;;;;;;;7.51;78.58;101199.09;1082213;54;20042;-76
2021/11/18 06:33:11;;;;;;;18.52;11.43;;;;;;;7.46;78.61;101202.03;1081973;54;20408;-76
2021/11/18 06:34:13;;;;;;;15.50;10.68;;;;;;;7.44;78.68;101195.13;1082036;54;20038;-77
2021/11/18 06:35:20;;;;;;;16.05;11.40;;;;;;;7.49;78.68;101199.19;1081692;54;20077;-77
2021/11/18 06:36:22;;;;;;;15.27;11.00;;;;;;;7.39;79.02;101198.06;1081523;54;20547;-77
2021/11/18 06:37:26;;;;;;;14.65;9.65;;;;;;;7.49;78.84;101200.97;1081203;54;20049;-77
2021/11/18 06:38:27;;;;;;;13.68;10.10;;;;;;;7.55;78.64;101211.25;1081630;54;20042;-76
2021/11/18 06:39:32;;;;;;;14.07;9.60;;;;;;;7.49;78.82;101212.50;1081587;54;20038;-76
2021/11/18 06:40:36;;;;;;;15.63;11.00;;;;;;;7.40;78.87;101225.50;1081471;54;20572;-76
2021/11/18 06:41:38;;;;;;;13.40;10.10;;;;;;;7.43;79.06;101212.88;1081275;54;20061;-76
2021/11/18 06:42:43;;;;;;;15.75;10.70;;;;;;;7.38;79.00;101217.63;1081720;39;20532;-77
2021/11/18 06:43:51;;;;;;;12.93;9.27;;;;;;;7.49;78.91;101209.84;1081367;39;20490;-76
2021/11/18 06:44:52;;;;;;;13.73;9.60;;;;;;;7.52;78.70;101218.56;1081092;54;20080;-77
2021/11/18 06:45:58;;;;;;;14.35;9.38;;;;;;;7.56;78.26;101218.25;1081165;54;20035;-77
2021/11/18 06:46:59;;;;;;;13.88;9.73;;;;;;;7.54;78.62;101217.53;1081302;54;20035;-76
2021/11/18 06:48:03;;;;;;;14.48;9.70;;;;;;;7.56;78.78;101217.44;1081252;54;20042;-77
2021/11/18 06:49:09;;;;;;;13.15;9.18;;;;;;;7.69;78.38;101217.50;1081261;54;20069;-76
2021/11/18 06:50:12;;;;;;;12.90;9.02;;;;;;;7.75;78.25;101225.09;1081712;39;20230;-77
2021/11/18 06:51:19;;;;;;;15.40;9.70;;;;;;;7.64;78.32;101228.44;1081326;54;20077;-77
2021/11/18 06:52:21;;;;;;;15.38;9.55;;;;;;;7.64;78.37;101226.66;1081401;54;20133;-77
2021/11/18 06:53:25;;;;;;;13.65;9.90;;;;;;;7.67;78.23;101232.72;1081525;54;20035;-77
2021/11/18 06:54:27;;;;;;;11.57;8.50;;;;;;;7.77;77.86;101237.38;1081232;39;20489;-76
2021/11/18 06:55:31;;;;;;;12.77;8.45;;;;;;;7.81;77.73;101238.88;1081384;54;20034;-77
2021/11/18 06:56:33;;;;;;;11.77;8.38;;;;;;;7.87;77.54;101234.97;1081395;39;20417;-77
2021/11/18 06:57:37;;;;;;;11.63;8.43;;;;;;;7.82;77.59;101231.75;1081376;54;20069;-77
2021/11/18 06:58:40;;;;;;;11.38;8.05;;;;;;;7.77;78.01;101236.50;1081286;54;20173;-77
2021/11/18 06:59:47;;;;;;;15.88;10.32;;;;;;;7.63;78.09;101235.59;1081386;54;20038;-77
2021/11/18 07:00:51;;;;;;;15.68;9.88;;;;;;;7.57;78.71;101237.75;1081888;31;20521;-78
2021/11/18 07:01:56;;;;;;;12.45;8.93;;;;;;;7.60;78.62;101233.09;1081702;54;20042;-77
2021/11/18 07:03:00;;;;;;;14.32;9.63;;;;;;;7.56;78.50;101236.91;1081835;39;20515;-76
2021/11/18 07:04:02;;;;;;;16.10;10.65;;;;;;;7.68;78.38;101234.41;1081160;54;20046;-77
2021/11/18 07:05:08;;;;;;;14.63;10.00;;;;;;;7.72;77.86;101238.63;1081378;54;20045;-77
2021/11/18 07:06:11;;;;;;;12.07;8.43;;;;;;;7.80;77.52;101239.81;1081193;54;20528;-78
2021/11/18 07:07:15;;;;;;;12.50;8.55;;;;;;;7.80;77.66;101246.97;1081190;54;20038;-76
2021/11/18 07:08:20;;;;;;;12.93;9.40;;;;;;;7.68;77.81;101242.41;1081102;54;20085;-77
2021/11/18 07:09:21;;;;;;;14.95;10.10;;;;;;;7.62;78.04;101252.50;1082224;31;20526;-77
2021/11/18 07:10:26;;;;;;;13.63;9.35;;;;;;;7.65;77.88;101256.75;1081488;39;20541;-78
2021/11/18 07:11:30;;;;;;;13.82;9.32;;;;;;;7.55;78.17;101251.19;1081571;54;20038;-76
2021/11/18 07:12:34;;;;;;;12.65;9.27;;;;;;;7.50;78.33;101253.25;1081100;54;20078;-77
2021/11/18 07:13:36;;;;;;;12.65;9.10;;;;;;;7.47;78.40;101256.09;1081209;54;20065;-77
2021/11/18 07:14:41;;;;;;;13.70;9.27;;;;;;;7.45;78.43;101260.69;1081194;54;20054;-77
2021/11/18 07:15:48;;;;;;;15.55;9.93;;;;;;;7.46;78.58;101267.72;1081730;54;20050;-77
2021/11/18 07:16:50;;;;;;;13.45;9.68;;;;;;;7.54;78.41;101261.91;1081237;54;20050;-77
2021/11/18 07:17:54;;;;;;;15.20;10.32;;;;;;;7.48;78.20;101265.78;1081473;54;20042;-76
2021/11/18 07:18:56;;;;;;;14.55;10.35;;;;;;;7.50;78.51;101266.56;1081813;54;20054;-78
2021/11/18 07:20:00;;;;;;;16.05;10.68;;;;;;;7.48;78.17;101261.34;1081362;54;20034;-77
2021/11/18 07:21:02;;;;;;;13.98;10.00;;;;;;;7.47;78.60;101272.94;1082337;39;20516;-76
2021/11/18 07:22:07;;;;;;;14.02;9.70;;;;;;;7.53;78.19;101263.72;1081307;54;20038;-76
2021/11/18 07:23:12;;;;;;;13.40;9.15;;;;;;;7.64;77.97;101274.56;1081755;39;20386;-76
2021/11/18 07:24:17;;;;;;;14.85;10.38;;;;;;;7.51;78.53;101270.09;1081425;54;20039;-75
2021/11/18 07:25:22;;;;;;;15.98;10.23;;;;;;;7.48;78.57;101276.44;1082407;54;20065;-76
2021/11/18 07:26:27;;;;;;;17.58;10.68;;;;;;;7.46;78.63;101273.88;1082497;46;20541;-76
2021/11/18 07:27:28;;;;;;;14.05;9.90;;;;;;;7.47;78.63;101272.94;1082389;54;20046;-76
2021/11/18 07:28:35;;;;;;;15.52;9.70;;;;;;;7.47;78.41;101272.06;1082329;54;20065;-76
2021/11/18 07:29:37;;;;;;;15.52;9.93;;;;;;;7.50;78.83;101274.53;1082439;54;20089;-76
2021/11/18 07:30:43;;;;;;;17.02;10.20;;;;;;;7.55;78.31;101276.91;1082601;47;20058;-76
2021/11/18 07:31:50;;;;;;;16.45;11.48;;;;;;;7.42;78.84;101282.16;1082816;39;20449;-76
2021/11/18 07:32:52;;;;;;;17.17;11.93;;;;;;;7.46;78.90;101278.34;1082511;54;20065;-76
2021/11/18 07:33:56;;;;;;;18.88;11.88;;;;;;;7.39;78.93;101279.66;1082086;46;20556;-77
2021/11/18 07:34:59;;;;;;;14.35;10.60;;;;;;;7.38;78.89;101280.59;1082680;54;20066;-76
2021/11/18 07:36:03;;;;;;;15.75;10.30;;;;;;;7.43;78.99;101278.53;1082507;54;20073;-76
2021/11/18 07:37:04;;;;;;;16.90;11.52;;;;;;;7.39;78.98;101277.88;1082630;54;20549;-76
2021/11/18 07:38:08;;;;;;;14.88;10.30;;;;;;;7.42;78.73;101282.16;1082571;54;20034;-77
2021/11/18 07:39:10;;;;;;;14.63;10.82;;;;;;;7.42;78.92;101276.81;1082399;54;20064;-76
2021/11/18 07:40:17;;;;;;;14.75;10.13;;;;;;;7.42;78.54;101276.81;1082883;39;20524;-76
2021/11/18 07:41:21;;;;;;;15.68;10.75;;;;;;;7.43;78.88;101284.69;1082127;47;20050;-76
2021/11/18 07:42:23;;;;;;;15.90;10.98;;;;;;;7.43;78.71;101286.53;1082309;54;20054;-76
2021/11/18 07:43:30;;;;;;;15.75;11.52;;;;;;;7.36;79.05;101283.38;1082580;39;20448;-76
2021/11/18 07:44:31;;;;;;;17.55;11.48;;;;;;;7.36;79.14;101282.53;1082878;39;20489;-76